createdAt,value
2022-11-29T00:00:18.917Z,100.00
2022-11-29T00:10:24.498Z,100.00
2022-11-29T00:20:30.213Z,100.00
2022-11-29T00:30:35.920Z,100.00
2022-11-29T00:40:41.548Z,100.00
2022-11-29T00:50:47.168Z,100.00
2022-11-29T01:00:53.470Z,100.00
2022-11-29T01:11:06.625Z,99.98
2022-11-29T01:21:14.069Z,99.97
2022-11-29T01:31:22.836Z,99.97
2022-11-29T01:41:29.790Z,99.90
2022-11-29T01:51:37.697Z,99.96
2022-11-29T02:01:44.396Z,99.92
2022-11-29T02:12:08.516Z,99.95
2022-11-29T02:22:18.997Z,99.83
2022-11-29T02:32:58.574Z,100.00
2022-11-29T02:43:26.311Z,99.97
2022-11-29T02:53:39.475Z,99.95
2022-11-29T03:03:51.900Z,99.92
2022-11-29T03:14:19.820Z,99.93
2022-11-29T03:24:32.214Z,100.00
2022-11-29T03:34:57.162Z,100.00
2022-11-29T03:45:09.105Z,100.00
2022-11-29T03:55:26.139Z,100.00
2022-11-29T04:06:03.837Z,100.00
2022-11-29T04:16:45.590Z,100.00
2022-11-29T04:27:30.889Z,100.00
2022-11-29T04:37:58.485Z,100.00
2022-11-29T04:48:19.946Z,100.00
2022-11-29T04:58:31.108Z,100.00
2022-11-29T05:08:48.113Z,100.00
2022-11-29T05:19:12.701Z,100.00
2022-11-29T05:29:27.596Z,100.00
2022-11-29T05:39:42.605Z,100.00
2022-11-29T05:49:59.267Z,100.00
2022-11-29T06:00:07.755Z,100.00
2022-11-29T06:10:17.844Z,100.00
2022-11-29T06:20:43.445Z,100.00
2022-11-29T06:31:01.130Z,100.00
2022-11-29T06:41:14.782Z,100.00
2022-11-29T06:51:29.975Z,100.00
2022-11-29T07:01:43.900Z,100.00
2022-11-29T07:11:50.529Z,100.00
2022-11-29T07:22:07.567Z,100.00
2022-11-29T07:32:20.673Z,100.00
2022-11-29T07:42:33.253Z,100.00
2022-11-29T07:52:38.878Z,100.00
2022-11-29T08:02:44.954Z,100.00
2022-11-29T08:12:52.029Z,100.00
2022-11-29T08:22:58.896Z,99.94
2022-11-29T08:33:04.648Z,99.90
2022-11-29T08:43:10.212Z,99.83
2022-11-29T08:53:32.989Z,99.85
2022-11-29T09:03:56.023Z,99.59
2022-11-29T09:14:03.417Z,99.23
2022-11-29T09:24:10.256Z,99.24
2022-11-29T09:34:14.835Z,99.26
2022-11-29T09:44:31.612Z,99.14
2022-11-29T09:54:38.375Z,98.82
2022-11-29T10:04:45.185Z,98.46
2022-11-29T10:14:58.737Z,98.63
2022-11-29T10:25:07.686Z,98.28
2022-11-29T10:35:17.634Z,97.98
2022-11-29T10:45:34.993Z,97.89
2022-11-29T10:55:45.115Z,97.32
2022-11-29T11:06:06.831Z,97.00
2022-11-29T11:16:18.458Z,96.96
2022-11-29T11:26:25.951Z,96.39
2022-11-29T11:36:31.566Z,96.09
2022-11-29T11:46:51.493Z,96.18
2022-11-29T11:56:57.291Z,95.99
2022-11-29T12:07:04.379Z,95.69
2022-11-29T12:17:18.467Z,95.54
2022-11-29T12:27:25.876Z,95.10
2022-11-29T12:37:38.544Z,94.71
2022-11-29T12:47:54.892Z,94.39
2022-11-29T12:58:11.826Z,94.55
2022-11-29T13:08:39.569Z,94.55
2022-11-29T13:18:52.538Z,94.24
2022-11-29T13:28:59.080Z,94.13
2022-11-29T13:39:17.613Z,94.18
2022-11-29T13:49:52.718Z,94.01
2022-11-29T13:59:58.306Z,93.78
2022-11-29T14:10:06.866Z,93.69
2022-11-29T14:20:51.481Z,93.63
2022-11-29T14:30:58.453Z,93.90
2022-11-29T14:41:07.384Z,93.99
2022-11-29T14:51:16.596Z,94.00
2022-11-29T15:01:23.331Z,94.20
2022-11-29T15:11:44.407Z,94.15
2022-11-29T15:21:57.754Z,94.56
2022-11-29T15:32:06.824Z,94.43
2022-11-29T15:42:15.492Z,94.79
2022-11-29T15:52:27.976Z,94.76
2022-11-29T16:02:37.087Z,94.90
2022-11-29T16:12:56.130Z,95.13
2022-11-29T16:23:14.800Z,95.07
2022-11-29T16:33:25.394Z,95.25
2022-11-29T16:43:53.263Z,95.39
2022-11-29T16:54:23.584Z,95.50
2022-11-29T17:04:29.228Z,95.45
2022-11-29T17:14:34.933Z,95.20
2022-11-29T17:24:47.417Z,95.17
2022-11-29T17:34:53.770Z,95.18
2022-11-29T17:44:59.389Z,95.18
2022-11-29T17:55:05.559Z,94.92
2022-11-29T18:05:11.898Z,95.04
2022-11-29T18:15:17.943Z,94.98
2022-11-29T18:25:38.660Z,95.12
2022-11-29T18:35:44.976Z,94.92
2022-11-29T18:45:51.920Z,95.15
2022-11-29T18:56:04.836Z,94.98
2022-11-29T19:06:13.435Z,95.05
2022-11-29T19:16:22.184Z,95.49
2022-11-29T19:26:29.761Z,95.33
2022-11-29T19:36:37.129Z,95.38
2022-11-29T19:46:45.704Z,95.62
2022-11-29T19:56:51.369Z,96.12
2022-11-29T20:06:58.041Z,96.22
2022-11-29T20:17:03.778Z,96.07
2022-11-29T20:27:09.403Z,96.29
2022-11-29T20:37:37.315Z,96.62
2022-11-29T20:47:51.416Z,96.92
2022-11-29T20:57:57.246Z,96.96
2022-11-29T21:08:02.843Z,97.23
2022-11-29T21:18:15.537Z,97.12
2022-11-29T21:28:25.653Z,97.37
2022-11-29T21:38:31.912Z,97.35
2022-11-29T21:48:37.899Z,97.58
2022-11-29T21:58:43.904Z,97.93
2022-11-29T22:08:50.778Z,98.00
2022-11-29T22:18:57.126Z,98.58
2022-11-29T22:29:02.744Z,98.66
2022-11-29T22:39:09.345Z,98.72
2022-11-29T22:49:15.592Z,98.58
2022-11-29T22:59:21.522Z,98.53
2022-11-29T23:09:27.201Z,98.88
2022-11-29T23:19:33.102Z,98.85
2022-11-29T23:29:39.032Z,98.93
2022-11-29T23:39:44.903Z,98.90
2022-11-29T23:49:50.570Z,98.77
2022-11-29T23:59:56.281Z,98.69
